sensor_id;sensor_type;location;lat;lon;timestamp;pressure;altitude;pressure_sealevel;temperature;humidity
62051;BME280;48008;51.204;6.766;2022-10-19T00:01:18;102395.16;;;10.05;98.55
62051;BME280;48008;51.204;6.766;2022-10-19T00:03:48;102401.44;;;10.04;98.60
62051;BME280;48008;51.204;6.766;2022-10-19T00:06:24;102397.91;;;10.04;98.21
62051;BME280;48008;51.204;6.766;2022-10-19T00:08:53;102401.44;;;10.04;98.08
62051;BME280;48008;51.204;6.766;2022-10-19T00:11:20;102401.09;;;10.09;97.45
62051;BME280;48008;51.204;6.766;2022-10-19T00:13:50;102390.34;;;9.86;98.58
62051;BME280;48008;51.204;6.766;2022-10-19T00:16:18;102395.59;;;9.99;97.74
62051;BME280;48008;51.204;6.766;2022-10-19T00:18:45;102396.03;;;9.93;97.62
62051;BME280;48008;51.204;6.766;2022-10-19T00:21:14;102385.41;;;9.93;97.51
62051;BME280;48008;51.204;6.766;2022-10-19T00:23:42;102383.22;;;9.87;97.43
62051;BME280;48008;51.204;6.766;2022-10-19T00:26:09;102384.78;;;9.89;96.95
62051;BME280;48008;51.204;6.766;2022-10-19T00:28:35;102387.69;;;9.86;96.91
62051;BME280;48008;51.204;6.766;2022-10-19T00:31:05;102392.03;;;9.74;96.92
62051;BME280;48008;51.204;6.766;2022-10-19T00:33:32;102379.53;;;9.64;96.91
62051;BME280;48008;51.204;6.766;2022-10-19T00:35:58;102384.84;;;9.64;97.01
62051;BME280;48008;51.204;6.766;2022-10-19T00:38:25;102382.09;;;9.65;97.33
62051;BME280;48008;51.204;6.766;2022-10-19T00:40:52;102376.16;;;9.61;97.15
62051;BME280;48008;51.204;6.766;2022-10-19T00:43:22;102382.53;;;9.59;97.35
62051;BME280;48008;51.204;6.766;2022-10-19T00:45:49;102385.59;;;9.53;97.44
62051;BME280;48008;51.204;6.766;2022-10-19T00:48:18;102387.69;;;9.48;97.80
62051;BME280;48008;51.204;6.766;2022-10-19T00:50:51;102391.44;;;9.45;98.49
62051;BME280;48008;51.204;6.766;2022-10-19T00:53:19;102386.75;;;9.49;98.14
62051;BME280;48008;51.204;6.766;2022-10-19T00:55:46;102381.66;;;9.46;97.93
62051;BME280;48008;51.204;6.766;2022-10-19T00:58:13;102375.00;;;9.40;97.67
62051;BME280;48008;51.204;6.766;2022-10-19T01:00:40;102382.84;;;9.41;97.70
62051;BME280;48008;51.204;6.766;2022-10-19T01:03:08;102368.88;;;9.39;97.50
62051;BME280;48008;51.204;6.766;2022-10-19T01:05:37;102375.97;;;9.39;97.69
62051;BME280;48008;51.204;6.766;2022-10-19T01:08:05;102376.06;;;9.37;97.79
62051;BME280;48008;51.204;6.766;2022-10-19T01:10:44;102376.59;;;9.43;97.70
62051;BME280;48008;51.204;6.766;2022-10-19T01:16:07;102373.31;;;9.39;97.47
62051;BME280;48008;51.204;6.766;2022-10-19T01:18:49;102368.97;;;9.38;97.19
62051;BME280;48008;51.204;6.766;2022-10-19T01:21:22;102368.97;;;9.25;97.59
62051;BME280;48008;51.204;6.766;2022-10-19T01:24:00;102374.47;;;9.22;97.50
62051;BME280;48008;51.204;6.766;2022-10-19T01:26:56;102374.16;;;9.27;97.56
62051;BME280;48008;51.204;6.766;2022-10-19T01:35:30;102372.06;;;9.19;97.20
62051;BME280;48008;51.204;6.766;2022-10-19T01:38:06;102368.75;;;9.15;97.26
62051;BME280;48008;51.204;6.766;2022-10-19T01:40:53;102371.41;;;9.15;97.28
62051;BME280;48008;51.204;6.766;2022-10-19T01:46:20;102361.13;;;9.11;96.26
62051;BME280;48008;51.204;6.766;2022-10-19T01:48:54;102357.94;;;9.06;96.31
62051;BME280;48008;51.204;6.766;2022-10-19T01:51:29;102354.78;;;9.00;96.69
62051;BME280;48008;51.204;6.766;2022-10-19T01:54:00;102347.25;;;8.94;97.00
62051;BME280;48008;51.204;6.766;2022-10-19T01:56:29;102351.06;;;8.90;97.58
62051;BME280;48008;51.204;6.766;2022-10-19T01:59:00;102341.09;;;8.94;97.12
62051;BME280;48008;51.204;6.766;2022-10-19T02:01:33;102340.25;;;8.93;97.17
62051;BME280;48008;51.204;6.766;2022-10-19T02:04:01;102339.63;;;8.90;97.35
62051;BME280;48008;51.204;6.766;2022-10-19T02:06:29;102337.19;;;8.87;97.69
62051;BME280;48008;51.204;6.766;2022-10-19T02:08:56;102339.09;;;8.84;97.54
62051;BME280;48008;51.204;6.766;2022-10-19T02:11:23;102339.28;;;8.81;97.42
62051;BME280;48008;51.204;6.766;2022-10-19T02:13:57;102344.38;;;8.84;97.69
62051;BME280;48008;51.204;6.766;2022-10-19T02:16:31;102343.41;;;8.86;96.97
62051;BME280;48008;51.204;6.766;2022-10-19T02:19:02;102350.50;;;8.85;97.27
62051;BME280;48008;51.204;6.766;2022-10-19T02:21:30;102346.56;;;8.78;97.57
62051;BME280;48008;51.204;6.766;2022-10-19T02:23:57;102342.13;;;8.78;97.72
62051;BME280;48008;51.204;6.766;2022-10-19T02:26:23;102336.34;;;8.86;97.12
62051;BME280;48008;51.204;6.766;2022-10-19T02:28:52;102342.44;;;8.74;96.98
62051;BME280;48008;51.204;6.766;2022-10-19T02:31:20;102338.81;;;8.62;97.04
62051;BME280;48008;51.204;6.766;2022-10-19T02:33:47;102333.66;;;8.60;97.18
62051;BME280;48008;51.204;6.766;2022-10-19T02:36:14;102329.19;;;8.61;97.08
62051;BME280;48008;51.204;6.766;2022-10-19T02:38:41;102318.91;;;8.56;97.65
62051;BME280;48008;51.204;6.766;2022-10-19T02:41:16;102322.53;;;8.55;98.18
62051;BME280;48008;51.204;6.766;2022-10-19T02:43:47;102320.91;;;8.53;97.52
62051;BME280;48008;51.204;6.766;2022-10-19T02:46:21;102311.19;;;8.53;97.60
62051;BME280;48008;51.204;6.766;2022-10-19T02:48:50;102302.72;;;8.48;97.91
62051;BME280;48008;51.204;6.766;2022-10-19T02:51:38;102313.84;;;8.53;97.21
62051;BME280;48008;51.204;6.766;2022-10-19T02:54:07;102308.56;;;8.53;95.81
62051;BME280;48008;51.204;6.766;2022-10-19T02:56:34;102313.19;;;8.50;96.11
62051;BME280;48008;51.204;6.766;2022-10-19T02:59:01;102304.50;;;8.48;96.56
62051;BME280;48008;51.204;6.766;2022-10-19T03:01:28;102306.50;;;8.44;96.98
62051;BME280;48008;51.204;6.766;2022-10-19T03:03:55;102294.31;;;8.41;97.62
62051;BME280;48008;51.204;6.766;2022-10-19T03:06:22;102299.59;;;8.41;96.88
62051;BME280;48008;51.204;6.766;2022-10-19T03:08:48;102297.72;;;8.43;95.77
62051;BME280;48008;51.204;6.766;2022-10-19T03:11:15;102293.41;;;8.42;95.90
62051;BME280;48008;51.204;6.766;2022-10-19T03:13:42;102296.19;;;8.39;95.84
62051;BME280;48008;51.204;6.766;2022-10-19T03:16:10;102297.72;;;8.43;95.87
62051;BME280;48008;51.204;6.766;2022-10-19T03:18:37;102298.19;;;8.36;95.71
62051;BME280;48008;51.204;6.766;2022-10-19T03:21:07;102300.94;;;8.34;97.22
62051;BME280;48008;51.204;6.766;2022-10-19T03:23:36;102295.84;;;8.31;96.99
62051;BME280;48008;51.204;6.766;2022-10-19T03:26:03;102297.47;;;8.34;97.08
62051;BME280;48008;51.204;6.766;2022-10-19T03:28:32;102302.19;;;8.29;96.23
62051;BME280;48008;51.204;6.766;2022-10-19T03:30:59;102303.44;;;8.23;97.01
62051;BME280;48008;51.204;6.766;2022-10-19T03:33:26;102298.63;;;8.30;96.48
62051;BME280;48008;51.204;6.766;2022-10-19T03:36:17;102305.78;;;8.27;95.62
62051;BME280;48008;51.204;6.766;2022-10-19T03:38:44;102305.03;;;8.25;95.78
62051;BME280;48008;51.204;6.766;2022-10-19T03:41:11;102306.19;;;8.21;97.18
62051;BME280;48008;51.204;6.766;2022-10-19T03:43:38;102308.28;;;8.16;97.37
62051;BME280;48008;51.204;6.766;2022-10-19T03:46:07;102307.13;;;8.20;97.53
62051;BME280;48008;51.204;6.766;2022-10-19T03:48:34;102310.94;;;8.16;97.68
62051;BME280;48008;51.204;6.766;2022-10-19T03:51:04;102319.81;;;8.15;97.97
62051;BME280;48008;51.204;6.766;2022-10-19T03:53:32;102323.84;;;8.21;97.46
62051;BME280;48008;51.204;6.766;2022-10-19T03:56:05;102319.50;;;8.20;97.24
62051;BME280;48008;51.204;6.766;2022-10-19T03:58:34;102326.41;;;8.22;97.65
62051;BME280;48008;51.204;6.766;2022-10-19T04:01:04;102319.81;;;8.15;98.09
62051;BME280;48008;51.204;6.766;2022-10-19T04:03:32;102323.00;;;8.20;98.53
62051;BME280;48008;51.204;6.766;2022-10-19T04:06:03;102322.78;;;8.23;97.73
62051;BME280;48008;51.204;6.766;2022-10-19T04:08:30;102323.75;;;8.22;97.29
62051;BME280;48008;51.204;6.766;2022-10-19T04:11:00;102327.34;;;8.21;97.25
62051;BME280;48008;51.204;6.766;2022-10-19T04:13:28;102321.88;;;8.24;97.12
62051;BME280;48008;51.204;6.766;2022-10-19T04:16:04;102321.41;;;8.18;97.13
62051;BME280;48008;51.204;6.766;2022-10-19T04:18:31;102311.47;;;8.21;97.14
62051;BME280;48008;51.204;6.766;2022-10-19T04:21:00;102312.81;;;8.14;98.03
62051;BME280;48008;51.204;6.766;2022-10-19T04:23:32;102320.41;;;8.06;97.73
62051;BME280;48008;51.204;6.766;2022-10-19T04:26:01;102318.22;;;8.13;97.95
62051;BME280;48008;51.204;6.766;2022-10-19T04:28:28;102319.41;;;8.21;97.84
62051;BME280;48008;51.204;6.766;2022-10-19T04:30:55;102316.44;;;8.13;98.01
62051;BME280;48008;51.204;6.766;2022-10-19T04:33:22;102320.25;;;8.22;98.21
62051;BME280;48008;51.204;6.766;2022-10-19T04:35:49;102312.41;;;8.20;98.33
62051;BME280;48008;51.204;6.766;2022-10-19T04:38:15;102316.97;;;8.18;98.82
62051;BME280;48008;51.204;6.766;2022-10-19T04:40:42;102325.44;;;8.23;98.60
62051;BME280;48008;51.204;6.766;2022-10-19T04:43:08;102311.56;;;8.20;97.97
62051;BME280;48008;51.204;6.766;2022-10-19T04:45:35;102318.66;;;8.19;97.15
62051;BME280;48008;51.204;6.766;2022-10-19T04:48:02;102320.66;;;8.16;97.78
62051;BME280;48008;51.204;6.766;2022-10-19T04:50:29;102312.28;;;8.09;97.51
62051;BME280;48008;51.204;6.766;2022-10-19T04:52:55;102306.44;;;8.04;98.02
62051;BME280;48008;51.204;6.766;2022-10-19T04:55:23;102308.03;;;8.06;97.57
62051;BME280;48008;51.204;6.766;2022-10-19T04:57:50;102310.88;;;8.03;98.22
62051;BME280;48008;51.204;6.766;2022-10-19T05:00:17;102298.41;;;8.05;98.72
62051;BME280;48008;51.204;6.766;2022-10-19T05:02:44;102304.44;;;8.07;98.92
62051;BME280;48008;51.204;6.766;2022-10-19T05:05:13;102294.09;;;8.04;99.08
62051;BME280;48008;51.204;6.766;2022-10-19T05:07:40;102288.56;;;8.07;99.22
62051;BME280;48008;51.204;6.766;2022-10-19T05:10:07;102296.13;;;8.14;100.00
62051;BME280;48008;51.204;6.766;2022-10-19T05:12:34;102295.94;;;8.17;100.00
62051;BME280;48008;51.204;6.766;2022-10-19T05:15:02;102293.16;;;8.18;100.00
62051;BME280;48008;51.204;6.766;2022-10-19T05:17:30;102284.75;;;8.26;100.00
62051;BME280;48008;51.204;6.766;2022-10-19T05:19:57;102291.53;;;8.30;100.00
62051;BME280;48008;51.204;6.766;2022-10-19T05:22:24;102290.56;;;8.31;100.00
62051;BME280;48008;51.204;6.766;2022-10-19T05:24:51;102285.28;;;8.31;100.00
62051;BME280;48008;51.204;6.766;2022-10-19T05:27:18;102285.47;;;8.42;100.00
62051;BME280;48008;51.204;6.766;2022-10-19T05:29:45;102282.94;;;8.54;100.00
62051;BME280;48008;51.204;6.766;2022-10-19T05:32:12;102280.09;;;8.57;100.00
62051;BME280;48008;51.204;6.766;2022-10-19T05:34:39;102288.25;;;8.67;100.00
62051;BME280;48008;51.204;6.766;2022-10-19T05:37:05;102282.09;;;8.53;100.00
62051;BME280;48008;51.204;6.766;2022-10-19T05:39:32;102279.47;;;8.53;100.00
62051;BME280;48008;51.204;6.766;2022-10-19T05:41:58;102281.16;;;8.67;100.00
62051;BME280;48008;51.204;6.766;2022-10-19T05:44:25;102276.69;;;8.68;100.00
62051;BME280;48008;51.204;6.766;2022-10-19T05:46:52;102280.50;;;8.63;100.00
62051;BME280;48008;51.204;6.766;2022-10-19T05:49:20;102278.50;;;8.67;100.00
62051;BME280;48008;51.204;6.766;2022-10-19T05:51:48;102277.75;;;8.65;100.00
62051;BME280;48008;51.204;6.766;2022-10-19T05:54:15;102277.88;;;8.63;100.00
62051;BME280;48008;51.204;6.766;2022-10-19T05:56:42;102284.97;;;8.76;100.00
62051;BME280;48008;51.204;6.766;2022-10-19T05:59:15;102279.38;;;8.80;100.00
62051;BME280;48008;51.204;6.766;2022-10-19T06:01:44;102279.38;;;8.80;100.00
62051;BME280;48008;51.204;6.766;2022-10-19T06:04:11;102277.69;;;8.79;100.00
62051;BME280;48008;51.204;6.766;2022-10-19T06:06:41;102277.47;;;8.70;100.00
62051;BME280;48008;51.204;6.766;2022-10-19T06:09:08;102273.66;;;8.74;100.00
62051;BME280;48008;51.204;6.766;2022-10-19T06:11:38;102269.53;;;8.82;100.00
62051;BME280;48008;51.204;6.766;2022-10-19T06:14:07;102269.53;;;8.82;100.00
62051;BME280;48008;51.204;6.766;2022-10-19T06:16:36;102275.97;;;8.91;100.00
62051;BME280;48008;51.204;6.766;2022-10-19T06:19:03;102272.50;;;8.91;100.00
62051;BME280;48008;51.204;6.766;2022-10-19T06:21:32;102274.94;;;8.94;100.00
62051;BME280;48008;51.204;6.766;2022-10-19T06:24:01;102271.66;;;8.90;100.00
62051;BME280;48008;51.204;6.766;2022-10-19T06:26:32;102281.50;;;8.88;100.00
62051;BME280;48008;51.204;6.766;2022-10-19T06:29:00;102279.25;;;8.95;100.00
62051;BME280;48008;51.204;6.766;2022-10-19T06:31:29;102294.84;;;8.99;100.00
62051;BME280;48008;51.204;6.766;2022-10-19T06:33:56;102292.72;;;9.05;100.00
62051;BME280;48008;51.204;6.766;2022-10-19T06:36:25;102294.19;;;8.96;100.00
62051;BME280;48008;51.204;6.766;2022-10-19T06:38:52;102298.31;;;9.00;100.00
62051;BME280;48008;51.204;6.766;2022-10-19T06:41:19;102296.31;;;9.03;100.00
62051;BME280;48008;51.204;6.766;2022-10-19T06:43:54;102303.06;;;9.08;99.92
62051;BME280;48008;51.204;6.766;2022-10-19T06:46:22;102294.94;;;9.11;99.90
62051;BME280;48008;51.204;6.766;2022-10-19T06:48:51;102290.72;;;9.08;99.76
62051;BME280;48008;51.204;6.766;2022-10-19T06:51:18;102296.31;;;9.03;100.00
62051;BME280;48008;51.204;6.766;2022-10-19T06:53:45;102291.09;;;9.15;99.87
62051;BME280;48008;51.204;6.766;2022-10-19T06:56:12;102286.69;;;9.15;99.86
62051;BME280;48008;51.204;6.766;2022-10-19T06:58:39;102282.31;;;9.14;100.00
62051;BME280;48008;51.204;6.766;2022-10-19T07:01:07;102276.09;;;9.15;99.68
62051;BME280;48008;51.204;6.766;2022-10-19T07:03:35;102274.09;;;9.19;99.46
62051;BME280;48008;51.204;6.766;2022-10-19T07:06:05;102285.38;;;9.34;99.35
62051;BME280;48008;51.204;6.766;2022-10-19T07:08:33;102277.53;;;9.32;98.74
62051;BME280;48008;51.204;6.766;2022-10-19T07:11:03;102276.91;;;9.29;99.13
62051;BME280;48008;51.204;6.766;2022-10-19T07:13:30;102281.91;;;9.33;98.65
62051;BME280;48008;51.204;6.766;2022-10-19T07:15:58;102291.72;;;9.31;98.68
62051;BME280;48008;51.204;6.766;2022-10-19T07:18:26;102288.88;;;9.34;98.99
62051;BME280;48008;51.204;6.766;2022-10-19T07:20:56;102300.31;;;9.35;98.48
62051;BME280;48008;51.204;6.766;2022-10-19T07:23:24;102299.16;;;9.39;98.20
62051;BME280;48008;51.204;6.766;2022-10-19T07:25:53;102301.44;;;9.56;98.23
62051;BME280;48008;51.204;6.766;2022-10-19T07:28:21;102300.03;;;9.64;98.44
62051;BME280;48008;51.204;6.766;2022-10-19T07:30:47;102311.53;;;9.64;97.51
62051;BME280;48008;51.204;6.766;2022-10-19T07:33:15;102309.25;;;9.71;97.05
62051;BME280;48008;51.204;6.766;2022-10-19T07:35:43;102307.84;;;9.78;95.82
62051;BME280;48008;51.204;6.766;2022-10-19T07:38:09;102315.88;;;9.89;95.22
62051;BME280;48008;51.204;6.766;2022-10-19T07:40:36;102316.84;;;9.88;94.99
62051;BME280;48008;51.204;6.766;2022-10-19T07:43:03;102310.34;;;9.92;94.79
62051;BME280;48008;51.204;6.766;2022-10-19T07:45:31;102310.88;;;9.97;95.12
62051;BME280;48008;51.204;6.766;2022-10-19T07:48:00;102306.88;;;10.16;94.56
62051;BME280;48008;51.204;6.766;2022-10-19T07:50:26;102299.06;;;10.26;94.15
62051;BME280;48008;51.204;6.766;2022-10-19T07:52:54;102299.50;;;10.32;93.54
62051;BME280;48008;51.204;6.766;2022-10-19T07:55:20;102295.25;;;10.30;93.91
62051;BME280;48008;51.204;6.766;2022-10-19T07:57:48;102297.75;;;10.44;93.43
62051;BME280;48008;51.204;6.766;2022-10-19T08:00:16;102305.38;;;10.60;93.34
62051;BME280;48008;51.204;6.766;2022-10-19T08:02:43;102310.00;;;10.69;91.98
62051;BME280;48008;51.204;6.766;2022-10-19T08:05:11;102309.88;;;10.71;91.97
62051;BME280;48008;51.204;6.766;2022-10-19T08:07:38;102308.91;;;10.61;90.99
62051;BME280;48008;51.204;6.766;2022-10-19T08:10:05;102296.81;;;10.56;90.66
62051;BME280;48008;51.204;6.766;2022-10-19T08:12:34;102292.63;;;10.65;91.52
62051;BME280;48008;51.204;6.766;2022-10-19T08:15:02;102282.97;;;10.64;92.01
62051;BME280;48008;51.204;6.766;2022-10-19T08:17:34;102289.84;;;10.67;92.45
62051;BME280;48008;51.204;6.766;2022-10-19T08:20:03;102278.41;;;10.66;91.40
62051;BME280;48008;51.204;6.766;2022-10-19T08:22:30;102280.19;;;10.66;90.56
62051;BME280;48008;51.204;6.766;2022-10-19T08:24:57;102280.44;;;10.63;89.49
62051;BME280;48008;51.204;6.766;2022-10-19T08:27:23;102276.38;;;10.81;89.88
62051;BME280;48008;51.204;6.766;2022-10-19T08:29:51;102280.06;;;10.67;89.62
62051;BME280;48008;51.204;6.766;2022-10-19T08:32:17;102282.63;;;10.80;89.30
62051;BME280;48008;51.204;6.766;2022-10-19T08:34:44;102287.72;;;10.83;89.42
62051;BME280;48008;51.204;6.766;2022-10-19T08:37:11;102282.53;;;10.93;89.12
62051;BME280;48008;51.204;6.766;2022-10-19T08:39:40;102287.47;;;10.86;87.88
62051;BME280;48008;51.204;6.766;2022-10-19T08:42:15;102275.44;;;10.93;89.40
62051;BME280;48008;51.204;6.766;2022-10-19T08:45:11;102267.47;;;10.93;89.13
62051;BME280;48008;51.204;6.766;2022-10-19T08:48:09;102264.44;;;10.98;89.14
62051;BME280;48008;51.204;6.766;2022-10-19T08:50:43;102261.44;;;11.03;89.90
62051;BME280;48008;51.204;6.766;2022-10-19T08:53:15;102259.00;;;11.00;89.06
62051;BME280;48008;51.204;6.766;2022-10-19T08:56:09;102253.34;;;11.04;88.93
62051;BME280;48008;51.204;6.766;2022-10-19T08:59:01;102253.22;;;10.94;87.46
62051;BME280;48008;51.204;6.766;2022-10-19T09:01:54;102245.63;;;11.01;86.69
62051;BME280;48008;51.204;6.766;2022-10-19T09:04:27;102243.34;;;11.08;87.40
62051;BME280;48008;51.204;6.766;2022-10-19T09:07:25;102235.00;;;11.12;87.34
62051;BME280;48008;51.204;6.766;2022-10-19T09:13:01;102221.69;;;11.24;84.19
62051;BME280;48008;51.204;6.766;2022-10-19T09:15:40;102233.28;;;11.34;84.82
62051;BME280;48008;51.204;6.766;2022-10-19T09:18:09;102225.16;;;11.47;86.40
62051;BME280;48008;51.204;6.766;2022-10-19T09:20:41;102226.00;;;11.47;82.61
62051;BME280;48008;51.204;6.766;2022-10-19T09:25:56;102218.59;;;11.62;82.24
62051;BME280;48008;51.204;6.766;2022-10-19T09:31:31;102223.13;;;11.94;81.03
62051;BME280;48008;51.204;6.766;2022-10-19T09:34:09;102219.84;;;12.02;80.96
62051;BME280;48008;51.204;6.766;2022-10-19T09:36:43;102219.78;;;12.13;81.23
62051;BME280;48008;51.204;6.766;2022-10-19T09:39:15;102226.69;;;12.16;77.80
62051;BME280;48008;51.204;6.766;2022-10-19T09:41:46;102215.25;;;12.25;78.77
62051;BME280;48008;51.204;6.766;2022-10-19T09:44:15;102213.31;;;12.27;77.79
62051;BME280;48008;51.204;6.766;2022-10-19T09:46:47;102217.97;;;12.35;79.26
62051;BME280;48008;51.204;6.766;2022-10-19T09:49:18;102215.66;;;12.41;76.15
62051;BME280;48008;51.204;6.766;2022-10-19T09:52:03;102212.25;;;12.60;77.47
62051;BME280;48008;51.204;6.766;2022-10-19T09:54:34;102212.84;;;12.64;76.60
62051;BME280;48008;51.204;6.766;2022-10-19T09:57:02;102217.09;;;12.76;76.78
62051;BME280;48008;51.204;6.766;2022-10-19T09:59:32;102220.38;;;12.90;75.42
62051;BME280;48008;51.204;6.766;2022-10-19T10:02:17;102215.97;;;13.00;76.84
62051;BME280;48008;51.204;6.766;2022-10-19T10:04:54;102209.13;;;13.07;75.92
62051;BME280;48008;51.204;6.766;2022-10-19T10:07:25;102208.56;;;13.13;75.10
62051;BME280;48008;51.204;6.766;2022-10-19T10:09:52;102207.63;;;13.24;75.27
62051;BME280;48008;51.204;6.766;2022-10-19T10:12:21;102202.13;;;13.47;74.87
62051;BME280;48008;51.204;6.766;2022-10-19T10:14:48;102203.94;;;13.66;75.26
62051;BME280;48008;51.204;6.766;2022-10-19T10:17:19;102205.91;;;13.63;73.15
62051;BME280;48008;51.204;6.766;2022-10-19T10:19:51;102202.69;;;13.70;72.50
62051;BME280;48008;51.204;6.766;2022-10-19T10:22:30;102197.66;;;13.76;71.99
62051;BME280;48008;51.204;6.766;2022-10-19T10:24:57;102201.84;;;13.98;71.30
62051;BME280;48008;51.204;6.766;2022-10-19T10:27:31;102205.81;;;14.14;71.00
62051;BME280;48008;51.204;6.766;2022-10-19T10:30:05;102198.84;;;14.40;69.79
62051;BME280;48008;51.204;6.766;2022-10-19T10:32:36;102198.94;;;14.78;70.19
62051;BME280;48008;51.204;6.766;2022-10-19T10:35:16;102191.72;;;15.16;66.13
62051;BME280;48008;51.204;6.766;2022-10-19T10:37:45;102186.22;;;15.63;64.71
62051;BME280;48008;51.204;6.766;2022-10-19T10:43:04;102179.25;;;17.95;56.30
62051;BME280;48008;51.204;6.766;2022-10-19T10:45:37;102180.94;;;18.76;52.64
62051;BME280;48008;51.204;6.766;2022-10-19T10:48:16;102173.78;;;20.62;48.23
62051;BME280;48008;51.204;6.766;2022-10-19T10:50:46;102176.69;;;22.41;45.04
62051;BME280;48008;51.204;6.766;2022-10-19T10:53:34;102187.44;;;24.39;38.41
62051;BME280;48008;51.204;6.766;2022-10-19T10:56:03;102187.66;;;25.55;35.89
62051;BME280;48008;51.204;6.766;2022-10-19T10:58:39;102186.75;;;26.18;32.52
62051;BME280;48008;51.204;6.766;2022-10-19T11:01:29;102170.63;;;26.78;32.27
62051;BME280;48008;51.204;6.766;2022-10-19T11:04:04;102168.06;;;26.03;32.11
62051;BME280;48008;51.204;6.766;2022-10-19T11:06:36;102158.50;;;24.13;33.83
62051;BME280;48008;51.204;6.766;2022-10-19T11:09:19;102159.25;;;25.51;32.31
62051;BME280;48008;51.204;6.766;2022-10-19T11:11:48;102163.19;;;25.55;31.85
62051;BME280;48008;51.204;6.766;2022-10-19T11:17:17;102144.63;;;27.13;29.79
62051;BME280;48008;51.204;6.766;2022-10-19T11:19:45;102139.75;;;27.99;29.19
62051;BME280;48008;51.204;6.766;2022-10-19T11:22:20;102131.81;;;27.98;27.90
62051;BME280;48008;51.204;6.766;2022-10-19T11:25:14;102135.56;;;28.32;28.00
62051;BME280;48008;51.204;6.766;2022-10-19T11:31:19;102134.41;;;29.38;26.42
62051;BME280;48008;51.204;6.766;2022-10-19T11:34:14;102128.53;;;29.46;25.79
62051;BME280;48008;51.204;6.766;2022-10-19T11:36:54;102121.19;;;28.60;26.61
62051;BME280;48008;51.204;6.766;2022-10-19T11:42:53;102115.44;;;26.16;30.43
62051;BME280;48008;51.204;6.766;2022-10-19T11:45:37;102108.94;;;26.17;30.00
62051;BME280;48008;51.204;6.766;2022-10-19T11:48:30;102105.94;;;25.24;32.72
62051;BME280;48008;51.204;6.766;2022-10-19T11:51:20;102108.97;;;25.41;31.23
62051;BME280;48008;51.204;6.766;2022-10-19T11:54:45;102101.59;;;24.78;32.49
62051;BME280;48008;51.204;6.766;2022-10-19T11:57:08;102090.53;;;24.01;34.17
62051;BME280;48008;51.204;6.766;2022-10-19T12:04:56;102068.53;;;21.99;39.15
62051;BME280;48008;51.204;6.766;2022-10-19T12:07:39;102069.28;;;22.21;37.85
62051;BME280;48008;51.204;6.766;2022-10-19T12:10:29;102061.25;;;22.83;37.08
62051;BME280;48008;51.204;6.766;2022-10-19T12:13:03;102061.38;;;23.36;36.13
62051;BME280;48008;51.204;6.766;2022-10-19T12:15:34;102056.38;;;23.40;33.84
62051;BME280;48008;51.204;6.766;2022-10-19T12:18:56;102056.81;;;23.84;34.48
62051;BME280;48008;51.204;6.766;2022-10-19T12:21:30;102054.50;;;23.54;33.40
62051;BME280;48008;51.204;6.766;2022-10-19T12:24:01;102046.53;;;23.99;32.51
62051;BME280;48008;51.204;6.766;2022-10-19T12:26:30;102041.94;;;24.13;32.48
62051;BME280;48008;51.204;6.766;2022-10-19T12:29:03;102041.13;;;24.64;32.61
62051;BME280;48008;51.204;6.766;2022-10-19T12:31:32;102032.91;;;24.26;32.22
62051;BME280;48008;51.204;6.766;2022-10-19T12:37:08;102024.59;;;25.61;30.24
62051;BME280;48008;51.204;6.766;2022-10-19T12:39:51;102019.72;;;26.44;28.81
62051;BME280;48008;51.204;6.766;2022-10-19T12:43:01;102014.94;;;26.88;28.95
62051;BME280;48008;51.204;6.766;2022-10-19T12:48:17;102009.91;;;25.88;28.66
62051;BME280;48008;51.204;6.766;2022-10-19T12:53:28;102000.44;;;25.28;31.03
62051;BME280;48008;51.204;6.766;2022-10-19T12:56:02;102001.84;;;25.05;30.71
62051;BME280;48008;51.204;6.766;2022-10-19T12:58:50;101992.06;;;25.55;31.28
62051;BME280;48008;51.204;6.766;2022-10-19T13:01:25;101979.44;;;25.60;29.40
62051;BME280;48008;51.204;6.766;2022-10-19T13:06:48;101976.84;;;26.09;30.18
62051;BME280;48008;51.204;6.766;2022-10-19T13:09:22;101965.13;;;25.90;29.80
62051;BME280;48008;51.204;6.766;2022-10-19T13:15:03;101962.63;;;26.26;27.47
62051;BME280;48008;51.204;6.766;2022-10-19T13:17:37;101952.84;;;26.36;28.26
62051;BME280;48008;51.204;6.766;2022-10-19T13:22:50;101949.66;;;25.91;28.80
62051;BME280;48008;51.204;6.766;2022-10-19T13:25:37;101935.22;;;25.35;29.06
62051;BME280;48008;51.204;6.766;2022-10-19T13:36:06;101927.47;;;23.32;33.64
62051;BME280;48008;51.204;6.766;2022-10-19T13:38:43;101926.25;;;23.22;32.32
62051;BME280;48008;51.204;6.766;2022-10-19T13:44:00;101925.19;;;22.14;32.04
62051;BME280;48008;51.204;6.766;2022-10-19T13:55:17;101920.84;;;21.43;35.47
62051;BME280;48008;51.204;6.766;2022-10-19T13:58:29;101920.59;;;21.38;36.81
62051;BME280;48008;51.204;6.766;2022-10-19T14:04:35;101907.91;;;20.61;37.95
62051;BME280;48008;51.204;6.766;2022-10-19T14:06:51;101908.31;;;20.21;38.06
62051;BME280;48008;51.204;6.766;2022-10-19T14:09:48;101910.09;;;19.99;39.36
62051;BME280;48008;51.204;6.766;2022-10-19T14:12:23;101909.72;;;19.43;41.06
62051;BME280;48008;51.204;6.766;2022-10-19T14:14:51;101907.31;;;19.48;42.65
62051;BME280;48008;51.204;6.766;2022-10-19T14:17:22;101906.66;;;19.46;42.33
62051;BME280;48008;51.204;6.766;2022-10-19T14:19:53;101900.50;;;19.07;42.87
62051;BME280;48008;51.204;6.766;2022-10-19T14:22:24;101896.03;;;18.99;42.52
62051;BME280;48008;51.204;6.766;2022-10-19T14:25:00;101890.81;;;18.75;43.91
62051;BME280;48008;51.204;6.766;2022-10-19T14:27:28;101882.19;;;18.65;44.88
62051;BME280;48008;51.204;6.766;2022-10-19T14:29:56;101891.41;;;18.39;44.46
62051;BME280;48008;51.204;6.766;2022-10-19T14:32:26;101886.59;;;18.34;45.36
62051;BME280;48008;51.204;6.766;2022-10-19T14:34:58;101884.97;;;18.25;46.84
62051;BME280;48008;51.204;6.766;2022-10-19T14:37:26;101883.19;;;18.09;47.38